Time;durP1;ratioP1;P1;durP2;ratioP2;P2;SDS_P1;SDS_P2;PMS_P1;PMS_P2;Temp;Humidity;BMP_temperature;BMP_pressure;BME280_temperature;BME280_humidity;BME280_pressure;Samples;Min_cycle;Max_cycle;Signal;HPM_P1;HPM_P2
2020/12/12 00:00:16;;;;;;;33.43;23.20;;;;;;;0.72;95.94;94123.09;1057185;28;20035;-40
2020/12/12 00:00:47;;;;;;;30.77;23.27;;;;;;;0.74;95.80;94127.06;1057296;28;20380;-40
2020/12/12 00:01:17;;;;;;;29.70;22.70;;;;;;;0.76;96.59;94125.13;1057218;28;20023;-40
2020/12/12 00:01:48;;;;;;;28.73;22.03;;;;;;;0.84;96.55;94126.81;1057150;28;20395;-40
2020/12/12 00:02:18;;;;;;;30.07;22.97;;;;;;;0.71;95.29;94130.03;1057505;28;20011;-40
2020/12/12 00:02:49;;;;;;;27.67;21.07;;;;;;;0.70;96.44;94129.25;1057516;27;20020;-40
2020/12/12 00:03:20;;;;;;;29.45;21.27;;;;;;;0.87;97.51;94123.84;1057646;28;20062;-39
2020/12/12 00:03:50;;;;;;;31.67;23.77;;;;;;;0.72;95.17;94128.28;1057494;28;20062;-40
2020/12/12 00:04:21;;;;;;;34.07;24.23;;;;;;;0.66;95.55;94124.63;1057564;28;20043;-40
2020/12/12 00:04:51;;;;;;;33.97;23.90;;;;;;;0.66;95.22;94124.63;1057424;28;20023;-40
2020/12/12 00:05:22;;;;;;;32.03;24.13;;;;;;;0.69;95.40;94122.44;1057541;28;20020;-40
2020/12/12 00:05:52;;;;;;;31.50;22.33;;;;;;;0.66;95.32;94122.81;1057576;28;20443;-40
2020/12/12 00:06:22;;;;;;;32.93;23.80;;;;;;;0.65;95.45;94123.00;1057883;28;20051;-40
2020/12/12 00:06:53;;;;;;;38.67;24.97;;;;;;;0.55;95.75;94125.91;1057780;28;20026;-40
2020/12/12 00:07:24;;;;;;;32.60;24.03;;;;;;;0.56;96.29;94130.06;1057786;28;20023;-40
2020/12/12 00:07:55;;;;;;;32.95;24.52;;;;;;;0.54;96.43;94134.63;1057677;28;20022;-39
2020/12/12 00:08:25;;;;;;;31.97;23.47;;;;;;;0.55;96.10;94131.06;1057861;28;20030;-39
2020/12/12 00:08:56;;;;;;;32.97;23.83;;;;;;;0.57;97.47;94136.06;1057515;28;20123;-39
2020/12/12 00:09:26;;;;;;;30.47;22.13;;;;;;;0.98;98.89;94132.91;1057614;28;20024;-39
2020/12/12 00:09:57;;;;;;;32.90;23.27;;;;;;;0.86;95.84;94127.41;1057610;28;20073;-38
2020/12/12 00:10:27;;;;;;;32.40;23.60;;;;;;;0.75;95.88;94123.50;1057661;28;20019;-38
2020/12/12 00:10:58;;;;;;;32.07;24.47;;;;;;;0.82;95.53;94120.97;1057532;28;20019;-38
2020/12/12 00:11:29;;;;;;;30.80;24.02;;;;;;;0.70;95.40;94116.28;1057088;28;20028;-39
2020/12/12 00:12:00;;;;;;;30.73;23.20;;;;;;;0.61;95.05;94125.16;1057313;28;20023;-39
2020/12/12 00:12:30;;;;;;;30.53;24.03;;;;;;;0.55;96.29;94123.31;1057146;28;20107;-39
2020/12/12 00:13:01;;;;;;;31.77;22.77;;;;;;;0.76;97.94;94119.94;1057132;28;20293;-38
2020/12/12 00:13:31;;;;;;;33.37;22.70;;;;;;;0.91;96.91;94122.47;1057567;28;20416;-39
2020/12/12 00:14:02;;;;;;;33.97;23.27;;;;;;;0.84;95.57;94113.84;1057321;28;20024;-38
2020/12/12 00:14:32;;;;;;;32.33;24.60;;;;;;;0.72;95.66;94115.31;1057063;28;20039;-39
2020/12/12 00:15:04;;;;;;;29.83;22.73;;;;;;;0.88;98.20;94115.88;1057132;28;20467;-39
2020/12/12 00:15:37;;;;;;;31.70;22.63;;;;;;;1.18;97.79;94117.53;1057252;28;20016;-39
2020/12/12 00:16:08;;;;;;;27.15;21.23;;;;;;;1.50;95.97;94110.22;1057570;28;20031;-39
2020/12/12 00:16:38;;;;;;;27.27;21.13;;;;;;;1.45;95.12;94117.75;1057374;27;20353;-39
2020/12/12 00:17:09;;;;;;;28.90;21.47;;;;;;;1.41;94.39;94115.53;1057742;28;20020;-39
2020/12/12 00:17:39;;;;;;;28.33;21.37;;;;;;;1.51;94.29;94115.22;1057602;28;20424;-39
2020/12/12 00:18:10;;;;;;;29.03;22.00;;;;;;;1.33;93.15;94123.44;1057645;27;20012;-39
2020/12/12 00:18:40;;;;;;;28.27;21.27;;;;;;;1.21;92.67;94117.16;1057548;28;20023;-39
2020/12/12 00:19:10;;;;;;;33.67;23.17;;;;;;;1.08;92.68;94124.81;1057503;28;20016;-39
2020/12/12 00:19:41;;;;;;;34.57;23.90;;;;;;;1.11;92.24;94119.25;1057481;28;20011;-39
2020/12/12 00:20:12;;;;;;;35.27;25.40;;;;;;;1.14;92.25;94117.13;1057656;28;20412;-39
2020/12/12 00:20:42;;;;;;;30.63;23.25;;;;;;;0.95;92.97;94109.97;1057475;28;20016;-39
2020/12/12 00:21:13;;;;;;;33.47;24.77;;;;;;;0.75;93.97;94107.19;1057094;28;20055;-40
2020/12/12 00:21:48;;;;;;;35.60;24.30;;;;;;;0.71;94.70;94117.09;1057090;28;20429;-40
2020/12/12 00:22:19;;;;;;;35.00;25.05;;;;;;;0.66;95.15;94112.47;1052957;28;20261;-40
2020/12/12 00:22:49;;;;;;;31.13;24.43;;;;;;;0.67;95.11;94114.06;1053789;28;20073;-40
2020/12/12 00:23:20;;;;;;;32.00;24.03;;;;;;;0.62;95.40;94100.88;1057623;28;20018;-39
2020/12/12 00:23:50;;;;;;;33.17;24.30;;;;;;;0.62;95.30;94107.81;1057409;28;20012;-39
2020/12/12 00:24:21;;;;;;;35.53;26.33;;;;;;;0.56;95.75;94111.16;1057366;28;20016;-40
2020/12/12 00:24:51;;;;;;;32.23;24.63;;;;;;;0.58;95.99;94110.00;1052883;28;20111;-40
2020/12/12 00:25:22;;;;;;;34.23;25.50;;;;;;;0.61;95.58;94117.41;1053073;28;20024;-40
2020/12/12 00:25:52;;;;;;;31.23;23.80;;;;;;;0.62;95.31;94115.59;1048880;28;20099;-41
2020/12/12 00:26:25;;;;;;;29.73;23.07;;;;;;;0.64;95.51;94113.66;1048779;28;20512;-39
2020/12/12 00:26:56;;;;;;;32.70;25.08;;;;;;;0.66;95.94;94112.47;1052722;28;20015;-39
2020/12/12 00:27:27;;;;;;;30.48;24.08;;;;;;;0.67;96.32;94111.47;1053731;28;20023;-39
2020/12/12 00:27:57;;;;;;;30.70;23.33;;;;;;;0.82;97.15;94108.03;1057429;28;20525;-40
2020/12/12 00:28:31;;;;;;;29.07;23.90;;;;;;;0.74;96.06;94110.75;1057679;28;20064;-39
2020/12/12 00:29:01;;;;;;;34.67;25.33;;;;;;;0.70;95.47;94111.13;1057619;28;20047;-40
2020/12/12 00:29:32;;;;;;;31.33;23.50;;;;;;;0.61;95.95;94108.81;1057685;28;20081;-40
2020/12/12 00:30:03;;;;;;;32.27;24.40;;;;;;;0.56;95.68;94106.75;1057552;28;20090;-40
2020/12/12 00:30:34;;;;;;;33.05;25.33;;;;;;;0.51;96.25;94102.13;1053165;28;20128;-40
2020/12/12 00:31:04;;;;;;;34.33;24.90;;;;;;;0.56;95.72;94105.97;1048802;28;20029;-40
2020/12/12 00:31:34;;;;;;;35.47;25.77;;;;;;;0.42;96.26;94105.03;1049023;28;20373;-40
2020/12/12 00:32:05;;;;;;;33.00;25.00;;;;;;;0.28;97.18;94106.66;1053288;28;20016;-40
2020/12/12 00:32:35;;;;;;;38.33;27.33;;;;;;;0.26;98.03;94101.66;1057396;28;20054;-39
2020/12/12 00:33:06;;;;;;;35.10;26.17;;;;;;;0.31;98.03;94101.91;1057486;28;20024;-40
2020/12/12 00:33:36;;;;;;;34.17;26.20;;;;;;;0.36;97.56;94103.97;1057624;28;20455;-39
2020/12/12 00:34:07;;;;;;;38.53;27.40;;;;;;;0.36;97.42;94103.97;1057627;28;20023;-40
2020/12/12 00:34:38;;;;;;;38.20;27.23;;;;;;;0.34;97.23;94103.34;1057472;28;20031;-41
2020/12/12 00:35:08;;;;;;;33.90;26.13;;;;;;;0.34;97.61;94105.94;1057574;28;20050;-39
2020/12/12 00:35:39;;;;;;;35.23;26.37;;;;;;;0.39;97.85;94107.97;1057498;28;20038;-39
2020/12/12 00:36:09;;;;;;;36.43;25.97;;;;;;;0.44;97.26;94108.22;1057587;28;20047;-40
2020/12/12 00:36:40;;;;;;;34.93;26.33;;;;;;;0.40;97.66;94107.00;1057404;28;20051;-40
2020/12/12 00:37:11;;;;;;;33.72;26.33;;;;;;;0.39;98.55;94110.56;1057389;28;20026;-40
2020/12/12 00:37:41;;;;;;;35.13;26.47;;;;;;;0.44;98.59;94113.41;1057301;28;20062;-40
2020/12/12 00:38:12;;;;;;;34.83;26.10;;;;;;;0.43;97.54;94110.03;1057583;28;20008;-40
2020/12/12 00:38:42;;;;;;;34.13;25.23;;;;;;;0.40;97.66;94109.59;1057718;28;20015;-40
2020/12/12 00:39:13;;;;;;;35.23;25.83;;;;;;;0.38;96.94;94106.38;1057812;28;20401;-40
2020/12/12 00:39:43;;;;;;;33.50;25.23;;;;;;;0.45;96.54;94109.84;1057614;28;20019;-39
2020/12/12 00:40:14;;;;;;;33.20;25.37;;;;;;;0.44;96.85;94100.47;1057111;28;20016;-39
2020/12/12 00:40:44;;;;;;;37.33;27.57;;;;;;;0.34;96.97;94101.56;1057132;28;20019;-40
2020/12/12 00:41:15;;;;;;;37.27;27.80;;;;;;;0.33;97.22;94102.56;1057335;28;20027;-40
2020/12/12 00:41:46;;;;;;;37.77;28.23;;;;;;;0.28;97.29;94099.69;1057325;28;20011;-40
2020/12/12 00:42:16;;;;;;;40.20;28.20;;;;;;;0.30;98.11;94100.31;1057588;28;20099;-40
2020/12/12 00:42:47;;;;;;;39.07;27.00;;;;;;;0.33;98.00;94099.97;1058529;28;20156;-39
2020/12/12 00:43:17;;;;;;;38.97;27.43;;;;;;;0.31;98.09;94094.16;1059496;28;20031;-39
2020/12/12 00:43:47;;;;;;;36.97;26.87;;;;;;;0.36;97.42;94093.59;1057607;28;20056;-39
2020/12/12 00:44:18;;;;;;;35.40;26.33;;;;;;;0.46;98.68;94091.53;1057136;28;20015;-40
2020/12/12 00:44:48;;;;;;;35.23;26.73;;;;;;;0.52;98.39;94090.00;1057051;28;20065;-40
2020/12/12 00:45:19;;;;;;;36.53;26.67;;;;;;;0.44;97.26;94096.09;1052919;28;20051;-40
2020/12/12 00:45:49;;;;;;;34.63;26.00;;;;;;;0.45;97.96;94091.72;1053130;28;20020;-40
2020/12/12 00:46:20;;;;;;;37.73;26.83;;;;;;;0.50;97.96;94091.97;1057057;28;20379;-40
2020/12/12 00:46:50;;;;;;;35.83;25.50;;;;;;;0.52;96.94;94102.97;1057149;28;20019;-40
2020/12/12 00:47:21;;;;;;;34.67;26.03;;;;;;;0.54;96.22;94100.97;1057555;28;20043;-40
2020/12/12 00:47:51;;;;;;;35.00;26.17;;;;;;;0.44;97.13;94097.88;1057467;28;20019;-39
2020/12/12 00:48:22;;;;;;;35.60;25.77;;;;;;;0.44;96.82;94095.28;1057540;28;20120;-40
2020/12/12 00:48:52;;;;;;;37.17;26.67;;;;;;;0.40;96.44;94089.66;1057492;28;20432;-40
2020/12/12 00:49:23;;;;;;;35.60;25.83;;;;;;;0.41;96.62;94087.88;1057092;28;20506;-40
2020/12/12 00:49:53;;;;;;;36.10;26.37;;;;;;;0.34;97.53;94098.97;1052940;28;20020;-40
2020/12/12 00:50:24;;;;;;;34.80;27.07;;;;;;;0.29;97.43;94090.94;1048627;28;20054;-40
2020/12/12 00:50:54;;;;;;;36.80;26.43;;;;;;;0.32;97.97;94090.59;1048705;28;20067;-40
2020/12/12 00:51:25;;;;;;;36.37;26.80;;;;;;;0.35;97.71;94097.19;1048800;28;20048;-40
2020/12/12 00:51:55;;;;;;;35.43;26.73;;;;;;;0.40;97.16;94099.25;1052916;28;20043;-39
2020/12/12 00:52:26;;;;;;;36.67;27.83;;;;;;;0.42;97.56;94100.63;1057130;28;20514;-39
2020/12/12 00:52:56;;;;;;;35.83;26.77;;;;;;;0.34;97.05;94098.97;1052716;28;20056;-39
2020/12/12 00:53:27;;;;;;;39.50;27.53;;;;;;;0.32;97.94;94092.38;1057195;28;20016;-39
2020/12/12 00:53:57;;;;;;;35.67;26.20;;;;;;;0.39;97.21;94095.81;1057128;28;20058;-39
2020/12/12 00:54:28;;;;;;;36.40;27.53;;;;;;;0.35;97.62;94095.41;1057248;28;20400;-39
2020/12/12 00:54:59;;;;;;;36.55;27.30;;;;;;;0.40;96.89;94094.06;1057248;28;20030;-39
2020/12/12 00:55:29;;;;;;;34.20;25.90;;;;;;;0.28;97.16;94094.50;1057507;28;20023;-39
2020/12/12 00:56:00;;;;;;;37.47;25.90;;;;;;;0.34;97.83;94093.00;1057309;28;20030;-39
2020/12/12 00:56:30;;;;;;;38.50;27.00;;;;;;;0.38;97.38;94089.06;1057110;28;20042;-39
2020/12/12 00:57:01;;;;;;;35.90;26.63;;;;;;;0.38;97.59;94090.84;1057075;28;20129;-39
2020/12/12 00:57:31;;;;;;;35.33;26.63;;;;;;;0.34;97.55;94090.41;1057173;28;20022;-39
2020/12/12 00:58:02;;;;;;;36.73;26.80;;;;;;;0.32;97.54;94092.38;1057084;28;20468;-39
2020/12/12 00:58:32;;;;;;;36.97;26.90;;;;;;;0.29;98.49;94096.13;1057312;28;20051;-39
2020/12/12 00:59:03;;;;;;;36.87;27.90;;;;;;;0.28;98.11;94091.91;1057430;28;20066;-39
2020/12/12 00:59:33;;;;;;;38.27;27.73;;;;;;;0.20;98.15;94088.63;1057524;28;20438;-39
2020/12/12 01:00:04;;;;;;;38.43;27.90;;;;;;;0.21;97.92;94096.22;1057386;28;20035;-39
2020/12/12 01:00:34;;;;;;;38.60;27.43;;;;;;;0.20;98.76;94092.03;1057315;28;20383;-39
2020/12/12 01:01:05;;;;;;;39.23;27.83;;;;;;;0.13;98.91;94097.13;1057381;28;20043;-39
2020/12/12 01:01:35;;;;;;;37.70;27.60;;;;;;;0.12;98.80;94095.53;1057437;28;20024;-39
2020/12/12 01:02:06;;;;;;;42.10;28.20;;;;;;;0.08;98.94;94093.50;1057362;28;20027;-39
2020/12/12 01:02:37;;;;;;;37.80;27.97;;;;;;;0.11;99.34;94093.91;1057404;28;20409;-39
2020/12/12 01:03:08;;;;;;;44.22;29.80;;;;;;;0.17;99.39;94095.78;1057245;28;20027;-39
2020/12/12 01:03:40;;;;;;;36.93;27.53;;;;;;;0.18;99.02;94096.56;1057056;28;20019;-39
2020/12/12 01:04:10;;;;;;;38.80;27.67;;;;;;;0.19;99.37;94092.22;1057177;28;20112;-39
2020/12/12 01:04:41;;;;;;;35.23;26.97;;;;;;;0.29;99.34;94092.72;1057060;28;20418;-39
2020/12/12 01:05:11;;;;;;;39.60;27.73;;;;;;;0.29;99.13;94090.94;1057160;28;20379;-40
2020/12/12 01:05:42;;;;;;;36.17;27.20;;;;;;;0.29;98.05;94084.94;1057226;28;20435;-40
2020/12/12 01:06:13;;;;;;;36.53;27.60;;;;;;;0.30;97.98;94089.16;1057369;28;20024;-40
2020/12/12 01:06:47;;;;;;;36.67;27.65;;;;;;;0.36;97.97;94093.59;1057302;28;20024;-39
2020/12/12 01:07:21;;;;;;;35.35;27.13;;;;;;;0.24;97.90;94089.88;1057457;28;20023;-39
2020/12/12 01:07:51;;;;;;;37.47;26.77;;;;;;;0.19;98.51;94095.59;1052819;28;20028;-39
2020/12/12 01:08:22;;;;;;;38.23;28.13;;;;;;;0.21;98.57;94088.44;1052717;28;20059;-39
2020/12/12 01:08:52;;;;;;;42.60;29.00;;;;;;;0.17;98.26;94088.03;1052778;28;20020;-39
2020/12/12 01:09:23;;;;;;;37.27;27.30;;;;;;;0.17;99.16;94084.63;1053474;28;20444;-39
2020/12/12 01:09:53;;;;;;;38.63;29.37;;;;;;;0.15;99.07;94084.81;1057574;28;20123;-39
2020/12/12 01:10:24;;;;;;;35.87;27.67;;;;;;;0.16;99.05;94077.84;1057276;28;20051;-40
2020/12/12 01:10:55;;;;;;;41.05;28.42;;;;;;;0.14;98.68;94080.63;1057134;28;20019;-39
2020/12/12 01:11:25;;;;;;;38.60;27.40;;;;;;;0.21;99.48;94082.47;1057134;28;20024;-39
2020/12/12 01:11:56;;;;;;;39.43;28.13;;;;;;;0.24;99.43;94085.50;1057023;28;20016;-40
2020/12/12 01:12:26;;;;;;;42.63;29.83;;;;;;;0.21;98.80;94083.28;1057029;28;20019;-39
2020/12/12 01:12:57;;;;;;;33.43;25.70;;;;;;;0.38;99.80;94077.88;1057238;28;20446;-40
2020/12/12 01:13:27;;;;;;;37.77;27.80;;;;;;;0.29;98.72;94080.59;1056960;28;20012;-39
2020/12/12 01:13:58;;;;;;;37.03;27.83;;;;;;;0.32;98.79;94082.81;1057099;28;20486;-39
2020/12/12 01:14:28;;;;;;;40.67;28.73;;;;;;;0.32;98.64;94080.22;1057060;28;20078;-40
2020/12/12 01:14:59;;;;;;;36.23;27.07;;;;;;;0.35;98.67;94082.47;1056987;28;20037;-39
2020/12/12 01:15:29;;;;;;;35.93;27.73;;;;;;;0.39;98.41;94079.50;1057226;28;20023;-39
2020/12/12 01:16:14;;;;;;;35.93;26.83;;;;;;;0.27;98.59;94079.16;1057050;28;20020;-39
2020/12/12 01:16:44;;;;;;;39.25;28.10;;;;;;;0.25;98.94;94075.97;1056830;28;20019;-39
2020/12/12 01:17:15;;;;;;;40.07;28.13;;;;;;;0.21;98.37;94077.31;1057040;28;20088;-40
2020/12/12 01:17:45;;;;;;;40.00;28.77;;;;;;;0.19;98.42;94082.66;1057366;28;20012;-40
2020/12/12 01:18:16;;;;;;;41.23;28.43;;;;;;;0.15;98.60;94081.41;1057338;28;20031;-39
2020/12/12 01:18:46;;;;;;;38.80;27.00;;;;;;;0.07;99.16;94081.53;1057356;28;20004;-39
2020/12/12 01:19:17;;;;;;;40.70;28.83;;;;;;;0.09;99.33;94085.53;1057342;28;20015;-39
2020/12/12 01:19:47;;;;;;;39.20;28.77;;;;;;;0.14;99.25;94085.78;1057001;28;20004;-39
2020/12/12 01:20:18;;;;;;;39.13;27.90;;;;;;;0.16;99.03;94080.44;1057101;28;20576;-39
2020/12/12 01:20:49;;;;;;;34.23;26.50;;;;;;;0.15;99.01;94084.00;1056957;28;20020;-39
2020/12/12 01:21:19;;;;;;;35.17;26.73;;;;;;;0.26;99.62;94083.53;1056980;28;20034;-39
2020/12/12 01:21:53;;;;;;;31.43;25.63;;;;;;;0.40;98.92;94081.91;1056946;28;20023;-39
2020/12/12 01:22:23;;;;;;;38.13;27.52;;;;;;;0.31;97.63;94081.22;1056977;28;20015;-40
2020/12/12 01:22:54;;;;;;;35.40;26.73;;;;;;;0.31;98.06;94081.22;1056985;28;20055;-40
2020/12/12 01:23:24;;;;;;;35.70;26.60;;;;;;;0.28;97.63;94078.97;1057316;28;20375;-39
2020/12/12 01:23:55;;;;;;;37.07;28.10;;;;;;;0.18;98.23;94078.47;1057296;28;20117;-39
2020/12/12 01:24:25;;;;;;;36.27;26.67;;;;;;;0.21;98.51;94077.31;1056925;28;20007;-40
2020/12/12 01:24:56;;;;;;;38.90;28.80;;;;;;;0.14;98.58;94070.25;1056744;28;20015;-39
2020/12/12 01:25:26;;;;;;;36.13;27.80;;;;;;;0.14;99.06;94077.22;1052593;28;20352;-40
2020/12/12 01:25:57;;;;;;;40.03;29.30;;;;;;;0.15;98.70;94078.81;1052869;28;20024;-39
2020/12/12 01:26:27;;;;;;;36.87;28.20;;;;;;;0.16;98.94;94077.84;1056951;28;20095;-40
2020/12/12 01:26:58;;;;;;;37.13;27.40;;;;;;;0.08;99.14;94072.78;1056951;28;20026;-39
2020/12/12 01:27:28;;;;;;;39.80;28.97;;;;;;;0.05;99.58;94076.53;1057277;28;20026;-40
2020/12/12 01:27:58;;;;;;;38.53;28.87;;;;;;;0.12;99.13;94082.59;1056709;28;20422;-39
2020/12/12 01:28:29;;;;;;;38.37;29.70;;;;;;;0.11;99.09;94080.19;1056803;28;20019;-39
2020/12/12 01:28:59;;;;;;;37.97;27.27;;;;;;;0.15;99.40;94081.41;1056779;28;20102;-40
2020/12/12 01:29:30;;;;;;;41.07;29.23;;;;;;;0.13;99.27;94075.63;1056813;28;20088;-40
2020/12/12 01:30:00;;;;;;;37.67;26.50;;;;;;;0.16;99.69;94083.03;1057407;28;20019;-39
2020/12/12 01:30:31;;;;;;;37.97;27.77;;;;;;;0.14;99.59;94074.66;1057130;28;20008;-40
2020/12/12 01:31:02;;;;;;;36.38;28.17;;;;;;;0.12;98.88;94079.19;1057305;28;20019;-40
2020/12/12 01:31:32;;;;;;;36.87;27.07;;;;;;;0.16;98.92;94077.84;1057337;28;20112;-39
2020/12/12 01:32:03;;;;;;;39.53;28.27;;;;;;;0.17;99.35;94085.44;1057061;28;20027;-40
2020/12/12 01:32:33;;;;;;;39.27;28.13;;;;;;;0.12;99.43;94080.00;1056734;28;20321;-40
2020/12/12 01:33:04;;;;;;;40.57;28.40;;;;;;;0.00;99.86;94076.28;1057026;28;20008;-39
2020/12/12 01:33:34;;;;;;;39.67;28.63;;;;;;;0.10;99.87;94075.97;1057100;28;20003;-39
2020/12/12 01:34:05;;;;;;;40.50;29.53;;;;;;;0.12;99.41;94077.41;1057081;28;20016;-39
2020/12/12 01:34:35;;;;;;;40.13;29.37;;;;;;;0.07;99.87;94073.75;1057060;28;20432;-39
2020/12/12 01:35:06;;;;;;;40.17;29.60;;;;;;;0.04;100.00;94074.13;1056752;28;20494;-40
2020/12/12 01:35:36;;;;;;;41.03;30.23;;;;;;;0.09;99.63;94072.59;1056763;28;20039;-39
2020/12/12 01:36:07;;;;;;;38.97;29.10;;;;;;;0.10;99.90;94073.41;1056796;28;20020;-39
2020/12/12 01:36:37;;;;;;;40.03;28.27;;;;;;;0.10;99.90;94076.78;1056686;28;20406;-39
2020/12/12 01:37:08;;;;;;;42.40;29.53;;;;;;;0.13;99.40;94079.00;1057228;28;20023;-39
2020/12/12 01:37:38;;;;;;;37.00;28.40;;;;;;;0.17;99.97;94080.25;1057029;28;20068;-40
2020/12/12 01:38:10;;;;;;;38.57;28.17;;;;;;;0.29;99.71;94082.38;1056754;28;20016;-40
2020/12/12 01:38:40;;;;;;;37.75;28.05;;;;;;;0.33;99.06;94076.66;1056602;28;20471;-39
2020/12/12 01:39:10;;;;;;;37.40;28.77;;;;;;;0.29;98.70;94078.00;1057152;27;20026;-39
2020/12/12 01:39:41;;;;;;;37.87;27.33;;;;;;;0.31;98.58;94077.81;1056963;28;20027;-39
2020/12/12 01:40:11;;;;;;;39.40;27.33;;;;;;;0.38;98.66;94083.06;1057179;28;20392;-40
2020/12/12 01:40:42;;;;;;;36.87;27.63;;;;;;;0.36;98.12;94075.47;1056750;28;20486;-39
2020/12/12 01:41:12;;;;;;;35.07;26.87;;;;;;;0.33;97.67;94079.25;1056764;28;20020;-39
2020/12/12 01:41:43;;;;;;;40.67;28.80;;;;;;;0.29;97.83;94080.59;1056780;28;20368;-39
2020/12/12 01:42:13;;;;;;;38.43;29.00;;;;;;;0.25;98.29;94076.75;1056821;28;20011;-39
2020/12/12 01:42:44;;;;;;;37.67;28.33;;;;;;;0.32;98.19;94085.41;1056563;28;20114;-40
2020/12/12 01:43:15;;;;;;;36.87;27.57;;;;;;;0.35;98.07;94081.66;1056294;28;20016;-39
2020/12/12 01:43:50;;;;;;;35.87;27.23;;;;;;;0.32;98.04;94082.03;1056764;28;20361;-39
2020/12/12 01:44:21;;;;;;;38.60;28.05;;;;;;;0.31;98.09;94083.78;1053261;28;20496;-40
2020/12/12 01:44:55;;;;;;;40.27;29.47;;;;;;;0.28;97.88;94076.38;1056687;28;20102;-40
2020/12/12 01:45:26;;;;;;;38.65;29.42;;;;;;;0.16;99.02;94075.25;1056675;28;20015;-39
2020/12/12 01:45:57;;;;;;;41.90;29.53;;;;;;;0.19;99.47;94077.47;1056891;28;20023;-39
2020/12/12 01:46:27;;;;;;;39.23;28.93;;;;;;;0.14;99.07;94069.47;1057132;28;20012;-40
2020/12/12 01:46:58;;;;;;;47.93;30.80;;;;;;;0.15;99.43;94077.06;1057010;28;20103;-39
2020/12/12 01:47:28;;;;;;;39.27;28.53;;;;;;;0.12;99.14;94071.41;1057051;28;20043;-40
2020/12/12 01:48:00;;;;;;;39.37;28.43;;;;;;;0.13;99.40;94075.63;1057139;28;20309;-39
2020/12/12 01:48:31;;;;;;;35.65;27.23;;;;;;;0.14;99.30;94074.66;1052577;28;20529;-39
2020/12/12 01:49:01;;;;;;;37.23;28.30;;;;;;;0.14;99.69;94072.06;1048455;28;20115;-40
2020/12/12 01:49:32;;;;;;;37.83;28.00;;;;;;;0.13;99.92;94073.03;1044139;28;20017;-40
2020/12/12 01:50:04;;;;;;;41.93;30.00;;;;;;;0.10;99.75;94069.00;1040436;28;20018;-40
2020/12/12 01:50:36;;;;;;;40.70;28.88;;;;;;;0.11;99.85;94072.44;1048659;28;20028;-39
2020/12/12 01:51:06;;;;;;;39.63;29.48;;;;;;;0.12;100.00;94071.41;1052863;28;20035;-39
2020/12/12 01:51:37;;;;;;;42.07;30.00;;;;;;;0.15;99.50;94071.06;1056806;28;20022;-40
2020/12/12 01:52:07;;;;;;;32.73;26.47;;;;;;;0.47;99.71;94076.78;1056758;28;20042;-39
2020/12/12 01:52:38;;;;;;;38.37;28.80;;;;;;;0.32;98.75;94072.47;1052505;28;20016;-40
2020/12/12 01:53:08;;;;;;;39.07;28.47;;;;;;;0.28;98.90;94075.59;1052530;28;20047;-39
2020/12/12 01:53:39;;;;;;;37.80;28.07;;;;;;;0.33;98.70;94081.03;1044220;28;20383;-40
2020/12/12 01:54:09;;;;;;;40.53;29.60;;;;;;;0.24;97.77;94075.13;1044332;28;20138;-39
2020/12/12 01:54:40;;;;;;;38.10;28.37;;;;;;;0.24;98.78;94076.94;1048286;28;20028;-40
2020/12/12 01:55:10;;;;;;;36.23;26.97;;;;;;;0.38;98.78;94081.31;1048413;28;20465;-39
2020/12/12 01:55:47;;;;;;;41.40;30.27;;;;;;;0.42;98.22;94081.72;1052511;28;20016;-40
2020/12/12 01:56:18;;;;;;;39.97;28.88;;;;;;;0.38;98.49;94075.31;1052611;28;20424;-39
2020/12/12 01:56:49;;;;;;;39.50;28.13;;;;;;;0.34;98.17;94075.66;1052561;28;20081;-39
2020/12/12 01:57:21;;;;;;;40.13;29.40;;;;;;;0.27;98.01;94074.78;1045341;28;20028;-40
2020/12/12 01:57:52;;;;;;;34.17;26.63;;;;;;;0.40;99.03;94078.53;1049113;28;20067;-39
2020/12/12 01:58:22;;;;;;;32.60;25.43;;;;;;;0.63;98.21;94076.56;1052552;28;20030;-39
2020/12/12 01:58:53;;;;;;;34.73;27.13;;;;;;;0.62;97.06;94074.16;1052795;28;20016;-39
2020/12/12 01:59:23;;;;;;;36.83;26.97;;;;;;;0.57;97.26;94081.69;1057128;28;20031;-39
2020/12/12 01:59:54;;;;;;;38.03;28.00;;;;;;;0.58;96.51;94076.31;1056942;28;20045;-39
2020/12/12 02:00:24;;;;;;;35.20;27.87;;;;;;;0.50;96.64;94082.41;1056994;28;20490;-40
2020/12/12 02:00:55;;;;;;;37.57;27.70;;;;;;;0.45;96.92;94076.19;1057056;28;20019;-39
2020/12/12 02:01:26;;;;;;;37.03;27.27;;;;;;;0.44;97.57;94077.16;1057118;28;20018;-40
2020/12/12 02:01:58;;;;;;;37.50;27.85;;;;;;;0.41;97.67;94087.88;1057048;28;20023;-40
2020/12/12 02:02:28;;;;;;;38.35;27.98;;;;;;;0.38;97.73;94086.47;1056894;28;20504;-39
2020/12/12 02:02:59;;;;;;;38.43;28.97;;;;;;;0.30;98.22;94087.34;1052452;28;20020;-40
2020/12/12 02:03:29;;;;;;;38.57;28.33;;;;;;;0.36;97.59;94088.44;1044316;28;20370;-40
2020/12/12 02:04:00;;;;;;;43.23;30.23;;;;;;;0.31;97.81;94088.97;1044434;28;20052;-40
2020/12/12 02:04:30;;;;;;;43.10;29.30;;;;;;;0.27;98.04;94085.13;1040176;28;20017;-40
2020/12/12 02:05:01;;;;;;;39.00;28.17;;;;;;;0.32;97.43;94082.81;1044209;28;20065;-40
2020/12/12 02:05:43;;;;;;;41.73;29.50;;;;;;;0.25;98.31;94084.53;1044384;28;20087;-40
2020/12/12 02:06:14;;;;;;;37.63;26.23;;;;;;;0.28;98.37;94080.78;1045909;28;20033;-40
2020/12/12 02:06:44;;;;;;;37.43;28.20;;;;;;;0.25;98.73;94084.53;1050138;28;20048;-40
2020/12/12 02:07:16;;;;;;;34.27;27.40;;;;;;;0.33;99.23;94079.25;1054573;28;20091;-40
2020/12/12 02:07:46;;;;;;;34.28;25.88;;;;;;;0.35;98.33;94087.63;1056885;28;20081;-40
2020/12/12 02:08:17;;;;;;;36.37;27.47;;;;;;;0.33;97.90;94084.44;1057009;28;20479;-40
2020/12/12 02:08:51;;;;;;;37.10;28.48;;;;;;;0.34;97.76;94080.84;1056660;28;20102;-37
2020/12/12 02:09:22;;;;;;;34.20;26.65;;;;;;;0.31;98.24;94083.78;1056769;28;20027;-39
2020/12/12 02:09:53;;;;;;;40.63;26.92;;;;;;;0.30;98.26;94083.97;1057032;28;20015;-40
2020/12/12 02:10:24;;;;;;;38.30;28.03;;;;;;;0.23;98.25;94073.56;1056603;28;20027;-40
2020/12/12 02:10:54;;;;;;;36.70;27.17;;;;;;;0.43;98.98;94076.38;1056811;28;20008;-37
2020/12/12 02:11:24;;;;;;;33.97;27.03;;;;;;;0.47;98.27;94080.19;1052639;28;20023;-38
2020/12/12 02:11:57;;;;;;;36.47;28.17;;;;;;;0.39;97.28;94082.88;1052635;28;20050;-38
2020/12/12 02:12:28;;;;;;;36.47;26.73;;;;;;;0.42;97.47;94079.94;1056581;28;20008;-38
2020/12/12 02:12:58;;;;;;;37.83;28.10;;;;;;;0.39;97.48;94087.28;1052288;28;20027;-38
2020/12/12 02:13:29;;;;;;;39.03;28.50;;;;;;;0.35;97.37;94081.66;1048291;28;20064;-38
2020/12/12 02:13:59;;;;;;;39.00;28.50;;;;;;;0.28;97.62;94081.56;1044134;28;20033;-38
2020/12/12 02:14:32;;;;;;;37.73;28.23;;;;;;;0.37;97.75;94082.28;1044151;28;20432;-38
2020/12/12 02:15:02;;;;;;;38.00;28.38;;;;;;;0.25;97.72;94081.13;1048511;28;20028;-38
2020/12/12 02:15:33;;;;;;;38.00;27.80;;;;;;;0.31;98.11;94081.22;1052824;28;20494;-38
2020/12/12 02:16:03;;;;;;;40.00;29.33;;;;;;;0.28;97.78;94080.78;1056688;28;20016;-39
2020/12/12 02:16:50;;;;;;;38.30;27.97;;;;;;;0.26;98.09;94082.72;1056975;28;20032;-39
2020/12/12 02:17:21;;;;;;;40.15;28.02;;;;;;;0.25;97.95;94075.97;1056692;28;20044;-38
2020/12/12 02:17:51;;;;;;;37.60;27.83;;;;;;;0.26;98.16;94073.19;1056555;28;20383;-38
2020/12/12 02:18:24;;;;;;;39.17;27.63;;;;;;;0.22;98.70;94076.31;1056662;28;20046;-39
2020/12/12 02:18:55;;;;;;;39.03;29.35;;;;;;;0.20;98.18;94079.09;1056737;28;20020;-38
2020/12/12 02:19:25;;;;;;;38.57;27.40;;;;;;;0.20;98.38;94079.09;1057051;28;20019;-38
2020/12/12 02:19:56;;;;;;;44.33;30.20;;;;;;;0.17;98.78;94077.66;1056904;28;20106;-39
2020/12/12 02:20:26;;;;;;;40.33;29.40;;;;;;;0.12;99.15;94074.00;1057099;28;20410;-38
2020/12/12 02:20:58;;;;;;;40.87;28.87;;;;;;;0.14;99.56;94069.47;1056837;28;20121;-38
2020/12/12 02:21:29;;;;;;;39.40;28.70;;;;;;;0.16;98.71;94070.09;1057088;28;20019;-38
2020/12/12 02:22:00;;;;;;;40.00;29.13;;;;;;;0.14;99.30;94074.66;1056928;28;20388;-38
2020/12/12 02:22:30;;;;;;;40.85;29.63;;;;;;;0.03;99.93;94077.69;1056999;28;20015;-38
2020/12/12 02:23:01;;;;;;;42.10;30.37;;;;;;;-0.03;100.00;94074.03;1056829;28;20060;-39
2020/12/12 02:23:31;;;;;;;38.83;28.40;;;;;;;0.01;99.75;94066.72;1056931;28;20019;-39